sensor_id;sensor_type;location;lat;lon;timestamp;P1;durP1;ratioP1;P2;durP2;ratioP2
946;SDS011;460;48.734;9.152;2022-07-10T00:00:27;2.47;;;2.27;;
946;SDS011;460;48.734;9.152;2022-07-10T00:02:57;2.20;;;2.03;;
946;SDS011;460;48.734;9.152;2022-07-10T00:05:24;2.73;;;2.53;;
946;SDS011;460;48.734;9.152;2022-07-10T00:07:51;2.87;;;2.67;;
946;SDS011;460;48.734;9.152;2022-07-10T00:10:19;2.23;;;2.00;;
946;SDS011;460;48.734;9.152;2022-07-10T00:12:47;3.60;;;3.20;;
946;SDS011;460;48.734;9.152;2022-07-10T00:15:18;3.00;;;2.00;;
946;SDS011;460;48.734;9.152;2022-07-10T00:17:46;1.77;;;1.67;;
946;SDS011;460;48.734;9.152;2022-07-10T00:20:15;3.50;;;2.90;;
946;SDS011;460;48.734;9.152;2022-07-10T00:22:46;3.70;;;2.00;;
946;SDS011;460;48.734;9.152;2022-07-10T00:25:14;2.63;;;2.47;;
946;SDS011;460;48.734;9.152;2022-07-10T00:27:43;2.57;;;2.20;;
946;SDS011;460;48.734;9.152;2022-07-10T00:30:11;2.53;;;2.33;;
946;SDS011;460;48.734;9.152;2022-07-10T00:32:40;2.87;;;2.60;;
946;SDS011;460;48.734;9.152;2022-07-10T00:35:08;2.30;;;2.10;;
946;SDS011;460;48.734;9.152;2022-07-10T00:37:37;2.80;;;2.60;;
946;SDS011;460;48.734;9.152;2022-07-10T00:40:05;2.60;;;2.40;;
946;SDS011;460;48.734;9.152;2022-07-10T00:42:34;2.10;;;2.00;;
946;SDS011;460;48.734;9.152;2022-07-10T00:45:01;2.40;;;2.20;;
946;SDS011;460;48.734;9.152;2022-07-10T00:47:30;2.30;;;2.10;;
946;SDS011;460;48.734;9.152;2022-07-10T00:49:57;2.47;;;2.27;;
946;SDS011;460;48.734;9.152;2022-07-10T00:52:25;2.53;;;2.33;;
946;SDS011;460;48.734;9.152;2022-07-10T00:54:54;2.97;;;2.27;;
946;SDS011;460;48.734;9.152;2022-07-10T00:57:21;2.30;;;1.90;;
946;SDS011;460;48.734;9.152;2022-07-10T00:59:49;2.00;;;1.90;;
946;SDS011;460;48.734;9.152;2022-07-10T01:02:17;2.13;;;1.97;;
946;SDS011;460;48.734;9.152;2022-07-10T01:04:44;2.20;;;2.00;;
946;SDS011;460;48.734;9.152;2022-07-10T01:07:12;2.43;;;2.23;;
946;SDS011;460;48.734;9.152;2022-07-10T01:09:41;2.50;;;2.30;;
946;SDS011;460;48.734;9.152;2022-07-10T01:12:09;2.80;;;2.53;;
946;SDS011;460;48.734;9.152;2022-07-10T01:14:38;2.60;;;2.40;;
946;SDS011;460;48.734;9.152;2022-07-10T01:17:07;2.87;;;2.40;;
946;SDS011;460;48.734;9.152;2022-07-10T01:19:36;5.13;;;2.27;;
946;SDS011;460;48.734;9.152;2022-07-10T01:22:05;2.03;;;1.93;;
946;SDS011;460;48.734;9.152;2022-07-10T01:24:33;2.30;;;2.00;;
946;SDS011;460;48.734;9.152;2022-07-10T01:27:00;3.03;;;2.73;;
946;SDS011;460;48.734;9.152;2022-07-10T01:29:28;2.80;;;2.50;;
946;SDS011;460;48.734;9.152;2022-07-10T01:31:57;2.30;;;2.10;;
946;SDS011;460;48.734;9.152;2022-07-10T01:34:26;2.00;;;1.83;;
946;SDS011;460;48.734;9.152;2022-07-10T01:36:55;2.43;;;2.23;;
946;SDS011;460;48.734;9.152;2022-07-10T01:39:24;2.83;;;2.50;;
946;SDS011;460;48.734;9.152;2022-07-10T01:41:52;1.97;;;1.83;;
946;SDS011;460;48.734;9.152;2022-07-10T01:44:20;2.33;;;2.13;;
946;SDS011;460;48.734;9.152;2022-07-10T01:46:48;2.80;;;2.60;;
946;SDS011;460;48.734;9.152;2022-07-10T01:49:16;2.23;;;2.03;;
946;SDS011;460;48.734;9.152;2022-07-10T01:51:44;2.00;;;1.90;;
946;SDS011;460;48.734;9.152;2022-07-10T01:54:11;3.60;;;2.80;;
946;SDS011;460;48.734;9.152;2022-07-10T01:56:40;2.20;;;2.00;;
946;SDS011;460;48.734;9.152;2022-07-10T01:59:07;2.43;;;2.27;;
946;SDS011;460;48.734;9.152;2022-07-10T02:01:34;2.10;;;2.00;;
946;SDS011;460;48.734;9.152;2022-07-10T02:04:01;2.30;;;2.10;;
946;SDS011;460;48.734;9.152;2022-07-10T02:06:46;2.80;;;2.07;;
946;SDS011;460;48.734;9.152;2022-07-10T02:09:13;2.97;;;2.63;;
946;SDS011;460;48.734;9.152;2022-07-10T02:11:45;5.37;;;2.30;;
946;SDS011;460;48.734;9.152;2022-07-10T02:14:17;2.90;;;2.70;;
946;SDS011;460;48.734;9.152;2022-07-10T02:16:44;2.60;;;2.20;;
946;SDS011;460;48.734;9.152;2022-07-10T02:19:11;3.20;;;2.10;;
946;SDS011;460;48.734;9.152;2022-07-10T02:21:38;2.77;;;2.47;;
946;SDS011;460;48.734;9.152;2022-07-10T02:24:05;2.00;;;1.87;;
946;SDS011;460;48.734;9.152;2022-07-10T02:26:32;2.60;;;2.40;;
946;SDS011;460;48.734;9.152;2022-07-10T02:29:00;4.10;;;3.23;;
946;SDS011;460;48.734;9.152;2022-07-10T02:31:27;4.27;;;3.33;;
946;SDS011;460;48.734;9.152;2022-07-10T02:33:54;3.90;;;3.60;;
946;SDS011;460;48.734;9.152;2022-07-10T02:36:21;3.80;;;2.93;;
946;SDS011;460;48.734;9.152;2022-07-10T02:38:48;4.20;;;3.80;;
946;SDS011;460;48.734;9.152;2022-07-10T02:41:18;4.93;;;4.43;;
946;SDS011;460;48.734;9.152;2022-07-10T02:43:45;4.87;;;4.47;;
946;SDS011;460;48.734;9.152;2022-07-10T02:46:14;4.07;;;3.60;;
946;SDS011;460;48.734;9.152;2022-07-10T02:48:41;5.27;;;4.27;;
946;SDS011;460;48.734;9.152;2022-07-10T02:51:08;4.60;;;4.20;;
946;SDS011;460;48.734;9.152;2022-07-10T02:53:35;5.17;;;4.70;;
946;SDS011;460;48.734;9.152;2022-07-10T02:56:02;6.53;;;4.77;;
946;SDS011;460;48.734;9.152;2022-07-10T02:58:29;3.97;;;3.53;;
946;SDS011;460;48.734;9.152;2022-07-10T03:00:56;7.17;;;5.53;;
946;SDS011;460;48.734;9.152;2022-07-10T03:03:25;5.57;;;5.07;;
946;SDS011;460;48.734;9.152;2022-07-10T03:05:52;5.60;;;4.93;;
946;SDS011;460;48.734;9.152;2022-07-10T03:08:19;6.17;;;5.10;;
946;SDS011;460;48.734;9.152;2022-07-10T03:10:46;8.20;;;6.13;;
946;SDS011;460;48.734;9.152;2022-07-10T03:13:13;6.23;;;4.83;;
946;SDS011;460;48.734;9.152;2022-07-10T03:15:39;6.13;;;4.93;;
946;SDS011;460;48.734;9.152;2022-07-10T03:18:06;9.50;;;5.93;;
946;SDS011;460;48.734;9.152;2022-07-10T03:20:35;6.13;;;5.40;;
946;SDS011;460;48.734;9.152;2022-07-10T03:23:01;5.20;;;4.10;;
946;SDS011;460;48.734;9.152;2022-07-10T03:25:28;6.10;;;5.47;;
946;SDS011;460;48.734;9.152;2022-07-10T03:27:55;7.30;;;4.97;;
946;SDS011;460;48.734;9.152;2022-07-10T03:30:22;6.13;;;4.87;;
946;SDS011;460;48.734;9.152;2022-07-10T03:32:49;10.50;;;4.57;;
946;SDS011;460;48.734;9.152;2022-07-10T03:35:16;4.47;;;4.07;;
946;SDS011;460;48.734;9.152;2022-07-10T03:37:44;5.20;;;3.90;;
946;SDS011;460;48.734;9.152;2022-07-10T03:40:11;4.57;;;4.13;;
946;SDS011;460;48.734;9.152;2022-07-10T03:42:38;5.60;;;5.13;;
946;SDS011;460;48.734;9.152;2022-07-10T03:45:05;4.30;;;3.90;;
946;SDS011;460;48.734;9.152;2022-07-10T03:47:33;5.63;;;4.60;;
946;SDS011;460;48.734;9.152;2022-07-10T03:49:59;5.77;;;3.67;;
946;SDS011;460;48.734;9.152;2022-07-10T03:52:27;4.70;;;4.13;;
946;SDS011;460;48.734;9.152;2022-07-10T03:54:55;4.40;;;4.00;;
946;SDS011;460;48.734;9.152;2022-07-10T03:57:22;3.93;;;3.63;;
946;SDS011;460;48.734;9.152;2022-07-10T04:00:07;6.50;;;5.20;;
946;SDS011;460;48.734;9.152;2022-07-10T04:02:35;6.13;;;5.53;;
946;SDS011;460;48.734;9.152;2022-07-10T04:05:04;4.43;;;3.90;;
946;SDS011;460;48.734;9.152;2022-07-10T04:07:33;3.70;;;3.40;;
946;SDS011;460;48.734;9.152;2022-07-10T04:10:01;5.67;;;4.17;;
946;SDS011;460;48.734;9.152;2022-07-10T04:12:28;5.00;;;4.20;;
946;SDS011;460;48.734;9.152;2022-07-10T04:14:55;6.63;;;5.50;;
946;SDS011;460;48.734;9.152;2022-07-10T04:17:22;5.60;;;3.80;;
946;SDS011;460;48.734;9.152;2022-07-10T04:19:49;5.63;;;4.63;;
946;SDS011;460;48.734;9.152;2022-07-10T04:22:16;4.30;;;3.43;;
946;SDS011;460;48.734;9.152;2022-07-10T04:24:43;4.20;;;3.80;;
946;SDS011;460;48.734;9.152;2022-07-10T04:27:11;5.47;;;4.07;;
946;SDS011;460;48.734;9.152;2022-07-10T04:29:38;5.40;;;4.90;;
946;SDS011;460;48.734;9.152;2022-07-10T04:32:05;8.63;;;4.67;;
946;SDS011;460;48.734;9.152;2022-07-10T04:34:32;5.43;;;4.93;;
946;SDS011;460;48.734;9.152;2022-07-10T04:36:59;4.50;;;3.40;;
946;SDS011;460;48.734;9.152;2022-07-10T04:39:26;3.73;;;3.40;;
946;SDS011;460;48.734;9.152;2022-07-10T04:41:53;4.83;;;3.67;;
946;SDS011;460;48.734;9.152;2022-07-10T04:44:22;4.10;;;2.97;;
946;SDS011;460;48.734;9.152;2022-07-10T04:46:49;4.03;;;3.63;;
946;SDS011;460;48.734;9.152;2022-07-10T04:49:16;4.30;;;3.90;;
946;SDS011;460;48.734;9.152;2022-07-10T04:51:42;4.03;;;3.63;;
946;SDS011;460;48.734;9.152;2022-07-10T04:54:09;4.17;;;3.20;;
946;SDS011;460;48.734;9.152;2022-07-10T04:56:36;4.70;;;3.07;;
946;SDS011;460;48.734;9.152;2022-07-10T04:59:03;3.60;;;3.30;;
946;SDS011;460;48.734;9.152;2022-07-10T05:01:32;4.00;;;3.47;;
946;SDS011;460;48.734;9.152;2022-07-10T05:03:59;4.13;;;3.00;;
946;SDS011;460;48.734;9.152;2022-07-10T05:06:26;4.73;;;3.30;;
946;SDS011;460;48.734;9.152;2022-07-10T05:08:53;3.50;;;3.03;;
946;SDS011;460;48.734;9.152;2022-07-10T05:11:20;3.07;;;2.77;;
946;SDS011;460;48.734;9.152;2022-07-10T05:13:47;3.37;;;2.23;;
946;SDS011;460;48.734;9.152;2022-07-10T05:16:14;3.70;;;3.20;;
946;SDS011;460;48.734;9.152;2022-07-10T05:18:43;3.83;;;2.97;;
946;SDS011;460;48.734;9.152;2022-07-10T05:21:10;2.63;;;2.30;;
946;SDS011;460;48.734;9.152;2022-07-10T05:23:38;3.40;;;3.00;;
946;SDS011;460;48.734;9.152;2022-07-10T05:26:05;2.33;;;2.13;;
946;SDS011;460;48.734;9.152;2022-07-10T05:28:32;2.40;;;2.20;;
946;SDS011;460;48.734;9.152;2022-07-10T05:31:04;4.03;;;2.63;;
946;SDS011;460;48.734;9.152;2022-07-10T05:33:31;3.17;;;2.43;;
946;SDS011;460;48.734;9.152;2022-07-10T05:36:00;3.40;;;2.87;;
946;SDS011;460;48.734;9.152;2022-07-10T05:38:27;2.83;;;2.37;;
946;SDS011;460;48.734;9.152;2022-07-10T05:40:54;2.17;;;2.07;;
946;SDS011;460;48.734;9.152;2022-07-10T05:43:21;3.03;;;2.73;;
946;SDS011;460;48.734;9.152;2022-07-10T05:45:48;2.50;;;2.30;;
946;SDS011;460;48.734;9.152;2022-07-10T05:48:14;2.70;;;2.37;;
946;SDS011;460;48.734;9.152;2022-07-10T05:50:41;2.40;;;2.20;;
946;SDS011;460;48.734;9.152;2022-07-10T05:53:10;2.90;;;2.70;;
946;SDS011;460;48.734;9.152;2022-07-10T05:55:37;2.30;;;2.20;;
946;SDS011;460;48.734;9.152;2022-07-10T05:58:03;2.03;;;1.83;;
946;SDS011;460;48.734;9.152;2022-07-10T06:00:30;2.37;;;2.17;;
946;SDS011;460;48.734;9.152;2022-07-10T06:02:57;2.07;;;1.90;;
946;SDS011;460;48.734;9.152;2022-07-10T06:05:24;1.57;;;1.47;;
946;SDS011;460;48.734;9.152;2022-07-10T06:07:51;3.60;;;2.00;;
946;SDS011;460;48.734;9.152;2022-07-10T06:10:19;1.47;;;1.37;;
946;SDS011;460;48.734;9.152;2022-07-10T06:12:46;1.70;;;1.60;;
946;SDS011;460;48.734;9.152;2022-07-10T06:15:13;1.33;;;1.23;;
946;SDS011;460;48.734;9.152;2022-07-10T06:17:40;2.37;;;2.17;;
946;SDS011;460;48.734;9.152;2022-07-10T06:20:07;2.03;;;1.50;;
946;SDS011;460;48.734;9.152;2022-07-10T06:22:34;1.53;;;1.43;;
946;SDS011;460;48.734;9.152;2022-07-10T06:25:02;1.13;;;0.90;;
946;SDS011;460;48.734;9.152;2022-07-10T06:27:32;2.10;;;1.90;;
946;SDS011;460;48.734;9.152;2022-07-10T06:29:59;1.30;;;1.20;;
946;SDS011;460;48.734;9.152;2022-07-10T06:32:26;4.47;;;1.90;;
946;SDS011;460;48.734;9.152;2022-07-10T06:34:54;1.93;;;1.73;;
946;SDS011;460;48.734;9.152;2022-07-10T06:37:21;2.13;;;1.90;;
946;SDS011;460;48.734;9.152;2022-07-10T06:39:48;1.20;;;1.10;;
946;SDS011;460;48.734;9.152;2022-07-10T06:42:15;1.57;;;1.47;;
946;SDS011;460;48.734;9.152;2022-07-10T06:44:44;0.83;;;0.83;;
946;SDS011;460;48.734;9.152;2022-07-10T06:47:13;1.70;;;1.27;;
946;SDS011;460;48.734;9.152;2022-07-10T06:50:00;1.60;;;1.37;;
946;SDS011;460;48.734;9.152;2022-07-10T06:52:27;1.50;;;1.40;;
946;SDS011;460;48.734;9.152;2022-07-10T06:54:54;1.50;;;1.40;;
946;SDS011;460;48.734;9.152;2022-07-10T06:57:21;1.50;;;1.40;;
946;SDS011;460;48.734;9.152;2022-07-10T06:59:49;1.60;;;1.50;;
946;SDS011;460;48.734;9.152;2022-07-10T07:02:17;1.50;;;1.40;;
946;SDS011;460;48.734;9.152;2022-07-10T07:04:44;2.00;;;1.20;;
946;SDS011;460;48.734;9.152;2022-07-10T07:07:11;1.37;;;1.27;;
946;SDS011;460;48.734;9.152;2022-07-10T07:09:38;2.00;;;1.67;;
946;SDS011;460;48.734;9.152;2022-07-10T07:12:05;2.23;;;1.90;;
946;SDS011;460;48.734;9.152;2022-07-10T07:14:34;1.87;;;1.67;;
946;SDS011;460;48.734;9.152;2022-07-10T07:17:03;1.27;;;1.17;;
946;SDS011;460;48.734;9.152;2022-07-10T07:19:34;1.30;;;1.20;;
946;SDS011;460;48.734;9.152;2022-07-10T07:22:15;1.57;;;1.30;;
946;SDS011;460;48.734;9.152;2022-07-10T07:25:00;1.30;;;1.20;;
946;SDS011;460;48.734;9.152;2022-07-10T07:27:26;1.17;;;1.17;;
946;SDS011;460;48.734;9.152;2022-07-10T07:29:53;1.10;;;1.00;;
946;SDS011;460;48.734;9.152;2022-07-10T07:32:22;4.83;;;1.33;;
946;SDS011;460;48.734;9.152;2022-07-10T07:34:48;1.77;;;1.30;;
946;SDS011;460;48.734;9.152;2022-07-10T07:37:17;3.03;;;1.13;;
946;SDS011;460;48.734;9.152;2022-07-10T07:39:47;1.27;;;1.17;;
946;SDS011;460;48.734;9.152;2022-07-10T07:42:23;1.77;;;1.30;;
946;SDS011;460;48.734;9.152;2022-07-10T07:44:50;2.20;;;1.40;;
946;SDS011;460;48.734;9.152;2022-07-10T07:47:17;0.83;;;0.83;;
946;SDS011;460;48.734;9.152;2022-07-10T07:49:45;1.40;;;1.13;;
946;SDS011;460;48.734;9.152;2022-07-10T07:52:12;1.23;;;1.03;;
946;SDS011;460;48.734;9.152;2022-07-10T07:54:39;1.07;;;1.07;;
946;SDS011;460;48.734;9.152;2022-07-10T07:57:15;1.03;;;1.03;;
946;SDS011;460;48.734;9.152;2022-07-10T07:59:44;1.90;;;1.20;;
946;SDS011;460;48.734;9.152;2022-07-10T08:02:11;1.10;;;1.00;;
946;SDS011;460;48.734;9.152;2022-07-10T08:04:38;1.10;;;1.00;;
946;SDS011;460;48.734;9.152;2022-07-10T08:07:06;1.07;;;0.93;;
946;SDS011;460;48.734;9.152;2022-07-10T08:09:33;2.10;;;1.00;;
946;SDS011;460;48.734;9.152;2022-07-10T08:12:00;2.07;;;1.30;;
946;SDS011;460;48.734;9.152;2022-07-10T08:14:27;0.70;;;0.70;;
946;SDS011;460;48.734;9.152;2022-07-10T08:16:54;1.23;;;0.70;;
946;SDS011;460;48.734;9.152;2022-07-10T08:19:21;1.00;;;0.90;;
946;SDS011;460;48.734;9.152;2022-07-10T08:21:48;1.10;;;1.03;;
946;SDS011;460;48.734;9.152;2022-07-10T08:24:17;1.13;;;0.80;;
946;SDS011;460;48.734;9.152;2022-07-10T08:26:44;0.90;;;0.90;;
946;SDS011;460;48.734;9.152;2022-07-10T08:29:10;1.40;;;1.30;;
946;SDS011;460;48.734;9.152;2022-07-10T08:31:37;1.53;;;1.10;;
946;SDS011;460;48.734;9.152;2022-07-10T08:34:05;1.70;;;1.00;;
946;SDS011;460;48.734;9.152;2022-07-10T08:36:32;0.80;;;0.80;;
946;SDS011;460;48.734;9.152;2022-07-10T08:38:59;0.87;;;0.87;;
946;SDS011;460;48.734;9.152;2022-07-10T08:41:27;2.60;;;1.27;;
946;SDS011;460;48.734;9.152;2022-07-10T08:43:57;0.97;;;0.97;;
946;SDS011;460;48.734;9.152;2022-07-10T08:46:25;1.00;;;1.00;;
946;SDS011;460;48.734;9.152;2022-07-10T08:48:53;1.07;;;0.97;;
946;SDS011;460;48.734;9.152;2022-07-10T08:51:22;1.00;;;1.00;;
946;SDS011;460;48.734;9.152;2022-07-10T08:53:57;1.23;;;1.17;;
946;SDS011;460;48.734;9.152;2022-07-10T08:56:28;1.27;;;1.17;;
946;SDS011;460;48.734;9.152;2022-07-10T08:58:56;1.50;;;1.40;;
946;SDS011;460;48.734;9.152;2022-07-10T09:01:25;0.97;;;0.97;;
946;SDS011;460;48.734;9.152;2022-07-10T09:03:52;1.50;;;1.40;;
946;SDS011;460;48.734;9.152;2022-07-10T09:06:19;1.00;;;0.90;;
946;SDS011;460;48.734;9.152;2022-07-10T09:08:59;0.87;;;0.87;;
946;SDS011;460;48.734;9.152;2022-07-10T09:11:29;0.90;;;0.90;;
946;SDS011;460;48.734;9.152;2022-07-10T09:13:57;1.30;;;1.20;;
946;SDS011;460;48.734;9.152;2022-07-10T09:16:25;1.27;;;1.17;;
946;SDS011;460;48.734;9.152;2022-07-10T09:18:54;1.00;;;0.90;;
946;SDS011;460;48.734;9.152;2022-07-10T09:21:22;1.10;;;1.00;;
946;SDS011;460;48.734;9.152;2022-07-10T09:23:49;0.80;;;0.80;;
946;SDS011;460;48.734;9.152;2022-07-10T09:26:17;1.03;;;1.00;;
946;SDS011;460;48.734;9.152;2022-07-10T09:28:45;2.30;;;1.20;;
946;SDS011;460;48.734;9.152;2022-07-10T09:31:19;1.00;;;1.00;;
946;SDS011;460;48.734;9.152;2022-07-10T09:33:46;1.23;;;0.83;;
946;SDS011;460;48.734;9.152;2022-07-10T09:36:13;1.20;;;1.10;;
946;SDS011;460;48.734;9.152;2022-07-10T09:41:28;0.73;;;0.73;;
946;SDS011;460;48.734;9.152;2022-07-10T09:43:57;1.10;;;1.10;;
946;SDS011;460;48.734;9.152;2022-07-10T09:46:27;0.77;;;0.77;;
946;SDS011;460;48.734;9.152;2022-07-10T09:49:06;1.30;;;1.20;;
946;SDS011;460;48.734;9.152;2022-07-10T09:51:36;1.27;;;1.17;;
946;SDS011;460;48.734;9.152;2022-07-10T09:54:05;1.03;;;0.97;;
946;SDS011;460;48.734;9.152;2022-07-10T09:56:42;0.97;;;0.87;;
946;SDS011;460;48.734;9.152;2022-07-10T09:59:14;1.07;;;1.07;;
946;SDS011;460;48.734;9.152;2022-07-10T10:01:43;0.90;;;0.90;;
946;SDS011;460;48.734;9.152;2022-07-10T10:04:12;1.00;;;0.90;;
946;SDS011;460;48.734;9.152;2022-07-10T10:06:39;3.13;;;2.00;;
946;SDS011;460;48.734;9.152;2022-07-10T10:09:07;0.77;;;0.70;;
946;SDS011;460;48.734;9.152;2022-07-10T10:11:39;1.17;;;1.07;;
946;SDS011;460;48.734;9.152;2022-07-10T10:14:09;0.83;;;0.83;;
946;SDS011;460;48.734;9.152;2022-07-10T10:16:44;1.00;;;1.00;;
946;SDS011;460;48.734;9.152;2022-07-10T10:19:12;1.40;;;1.30;;
946;SDS011;460;48.734;9.152;2022-07-10T10:21:57;1.03;;;1.03;;
946;SDS011;460;48.734;9.152;2022-07-10T10:24:25;0.90;;;0.90;;
946;SDS011;460;48.734;9.152;2022-07-10T10:26:52;1.03;;;0.87;;
946;SDS011;460;48.734;9.152;2022-07-10T10:29:22;1.87;;;1.10;;
946;SDS011;460;48.734;9.152;2022-07-10T10:31:50;1.47;;;1.37;;
946;SDS011;460;48.734;9.152;2022-07-10T10:37:08;1.10;;;1.10;;
946;SDS011;460;48.734;9.152;2022-07-10T10:40:00;1.47;;;1.23;;
946;SDS011;460;48.734;9.152;2022-07-10T10:42:34;1.10;;;1.00;;
946;SDS011;460;48.734;9.152;2022-07-10T10:47:59;0.80;;;0.80;;
946;SDS011;460;48.734;9.152;2022-07-10T10:50:36;1.33;;;1.23;;
946;SDS011;460;48.734;9.152;2022-07-10T10:53:15;1.00;;;0.80;;
946;SDS011;460;48.734;9.152;2022-07-10T10:58:57;1.43;;;1.30;;
946;SDS011;460;48.734;9.152;2022-07-10T11:01:24;1.30;;;1.20;;
946;SDS011;460;48.734;9.152;2022-07-10T11:04:15;1.20;;;1.10;;
946;SDS011;460;48.734;9.152;2022-07-10T11:06:43;1.00;;;1.00;;
946;SDS011;460;48.734;9.152;2022-07-10T11:09:27;1.70;;;1.60;;
946;SDS011;460;48.734;9.152;2022-07-10T11:12:02;0.80;;;0.80;;
946;SDS011;460;48.734;9.152;2022-07-10T11:14:31;0.97;;;0.97;;
946;SDS011;460;48.734;9.152;2022-07-10T11:16:59;1.17;;;1.03;;
946;SDS011;460;48.734;9.152;2022-07-10T11:19:28;1.90;;;1.37;;
946;SDS011;460;48.734;9.152;2022-07-10T11:22:02;1.30;;;1.20;;
946;SDS011;460;48.734;9.152;2022-07-10T11:24:49;0.73;;;0.73;;
946;SDS011;460;48.734;9.152;2022-07-10T11:27:40;2.17;;;1.03;;
946;SDS011;460;48.734;9.152;2022-07-10T11:30:44;2.20;;;1.20;;
946;SDS011;460;48.734;9.152;2022-07-10T11:33:12;1.27;;;1.00;;
946;SDS011;460;48.734;9.152;2022-07-10T11:35:40;1.10;;;0.87;;
946;SDS011;460;48.734;9.152;2022-07-10T11:38:07;0.67;;;0.67;;
946;SDS011;460;48.734;9.152;2022-07-10T11:40:35;1.03;;;0.83;;
946;SDS011;460;48.734;9.152;2022-07-10T11:43:04;2.10;;;0.90;;
946;SDS011;460;48.734;9.152;2022-07-10T11:45:34;0.80;;;0.80;;
946;SDS011;460;48.734;9.152;2022-07-10T11:48:07;0.80;;;0.80;;
946;SDS011;460;48.734;9.152;2022-07-10T11:50:42;1.60;;;1.50;;
946;SDS011;460;48.734;9.152;2022-07-10T11:53:12;1.27;;;0.60;;
946;SDS011;460;48.734;9.152;2022-07-10T11:55:39;0.57;;;0.57;;
946;SDS011;460;48.734;9.152;2022-07-10T11:58:17;0.70;;;0.70;;
946;SDS011;460;48.734;9.152;2022-07-10T12:00:45;0.60;;;0.60;;
946;SDS011;460;48.734;9.152;2022-07-10T12:03:24;0.80;;;0.80;;
946;SDS011;460;48.734;9.152;2022-07-10T12:05:51;0.77;;;0.77;;
946;SDS011;460;48.734;9.152;2022-07-10T12:08:18;0.57;;;0.57;;
946;SDS011;460;48.734;9.152;2022-07-10T12:10:45;0.83;;;0.67;;
946;SDS011;460;48.734;9.152;2022-07-10T12:13:12;0.57;;;0.57;;
946;SDS011;460;48.734;9.152;2022-07-10T12:15:42;1.10;;;1.00;;
946;SDS011;460;48.734;9.152;2022-07-10T12:18:14;0.80;;;0.80;;
946;SDS011;460;48.734;9.152;2022-07-10T12:20:43;0.80;;;0.80;;
946;SDS011;460;48.734;9.152;2022-07-10T12:23:12;1.63;;;0.77;;
946;SDS011;460;48.734;9.152;2022-07-10T12:25:41;0.53;;;0.53;;
946;SDS011;460;48.734;9.152;2022-07-10T12:28:09;0.70;;;0.70;;
946;SDS011;460;48.734;9.152;2022-07-10T12:30:38;0.90;;;0.70;;
946;SDS011;460;48.734;9.152;2022-07-10T12:33:08;0.87;;;0.60;;
946;SDS011;460;48.734;9.152;2022-07-10T12:35:48;0.60;;;0.60;;
946;SDS011;460;48.734;9.152;2022-07-10T12:38:17;0.50;;;0.50;;
946;SDS011;460;48.734;9.152;2022-07-10T12:40:45;0.70;;;0.63;;
946;SDS011;460;48.734;9.152;2022-07-10T12:43:12;0.73;;;0.73;;
946;SDS011;460;48.734;9.152;2022-07-10T12:45:39;0.67;;;0.67;;
946;SDS011;460;48.734;9.152;2022-07-10T12:48:06;0.40;;;0.40;;
946;SDS011;460;48.734;9.152;2022-07-10T12:50:47;0.53;;;0.53;;
946;SDS011;460;48.734;9.152;2022-07-10T12:53:14;0.57;;;0.57;;
946;SDS011;460;48.734;9.152;2022-07-10T12:55:40;0.50;;;0.50;;
946;SDS011;460;48.734;9.152;2022-07-10T12:58:08;0.60;;;0.60;;
946;SDS011;460;48.734;9.152;2022-07-10T13:00:43;0.47;;;0.40;;
946;SDS011;460;48.734;9.152;2022-07-10T13:03:17;0.70;;;0.70;;
946;SDS011;460;48.734;9.152;2022-07-10T13:05:45;0.40;;;0.40;;
946;SDS011;460;48.734;9.152;2022-07-10T13:08:12;0.40;;;0.40;;
946;SDS011;460;48.734;9.152;2022-07-10T13:10:42;1.00;;;0.53;;
946;SDS011;460;48.734;9.152;2022-07-10T13:13:10;0.80;;;0.80;;
946;SDS011;460;48.734;9.152;2022-07-10T13:15:37;0.80;;;0.80;;
946;SDS011;460;48.734;9.152;2022-07-10T13:18:13;0.80;;;0.73;;
946;SDS011;460;48.734;9.152;2022-07-10T13:20:42;0.97;;;0.70;;
946;SDS011;460;48.734;9.152;2022-07-10T13:23:09;0.43;;;0.43;;
946;SDS011;460;48.734;9.152;2022-07-10T13:25:36;0.53;;;0.50;;
946;SDS011;460;48.734;9.152;2022-07-10T13:28:04;0.70;;;0.57;;
946;SDS011;460;48.734;9.152;2022-07-10T13:30:31;1.00;;;0.90;;
946;SDS011;460;48.734;9.152;2022-07-10T13:32:58;0.40;;;0.40;;
946;SDS011;460;48.734;9.152;2022-07-10T13:35:28;0.50;;;0.50;;
946;SDS011;460;48.734;9.152;2022-07-10T13:37:56;1.40;;;0.60;;
946;SDS011;460;48.734;9.152;2022-07-10T13:40:24;0.60;;;0.60;;
946;SDS011;460;48.734;9.152;2022-07-10T13:42:51;0.40;;;0.40;;
946;SDS011;460;48.734;9.152;2022-07-10T13:45:19;0.40;;;0.37;;
946;SDS011;460;48.734;9.152;2022-07-10T13:47:45;0.90;;;0.60;;
946;SDS011;460;48.734;9.152;2022-07-10T13:50:13;0.47;;;0.47;;
946;SDS011;460;48.734;9.152;2022-07-10T13:52:41;0.40;;;0.40;;
946;SDS011;460;48.734;9.152;2022-07-10T13:55:11;0.50;;;0.40;;
946;SDS011;460;48.734;9.152;2022-07-10T13:57:38;0.70;;;0.70;;
946;SDS011;460;48.734;9.152;2022-07-10T14:00:05;0.50;;;0.40;;
946;SDS011;460;48.734;9.152;2022-07-10T14:02:33;0.90;;;0.60;;
946;SDS011;460;48.734;9.152;2022-07-10T14:05:00;0.50;;;0.50;;
946;SDS011;460;48.734;9.152;2022-07-10T14:07:27;0.60;;;0.60;;
946;SDS011;460;48.734;9.152;2022-07-10T14:09:56;0.73;;;0.73;;
946;SDS011;460;48.734;9.152;2022-07-10T14:12:23;0.47;;;0.47;;
946;SDS011;460;48.734;9.152;2022-07-10T14:14:50;0.50;;;0.50;;
946;SDS011;460;48.734;9.152;2022-07-10T14:17:17;0.50;;;0.40;;
946;SDS011;460;48.734;9.152;2022-07-10T14:19:44;0.43;;;0.43;;
946;SDS011;460;48.734;9.152;2022-07-10T14:22:11;0.60;;;0.60;;
946;SDS011;460;48.734;9.152;2022-07-10T14:24:38;0.60;;;0.60;;
946;SDS011;460;48.734;9.152;2022-07-10T14:27:06;0.60;;;0.50;;
946;SDS011;460;48.734;9.152;2022-07-10T14:29:33;0.40;;;0.40;;
946;SDS011;460;48.734;9.152;2022-07-10T14:32:02;0.60;;;0.60;;
946;SDS011;460;48.734;9.152;2022-07-10T14:34:29;0.70;;;0.70;;
946;SDS011;460;48.734;9.152;2022-07-10T14:36:56;0.70;;;0.60;;
946;SDS011;460;48.734;9.152;2022-07-10T14:39:29;0.60;;;0.60;;
946;SDS011;460;48.734;9.152;2022-07-10T14:41:56;0.50;;;0.50;;
946;SDS011;460;48.734;9.152;2022-07-10T14:44:24;0.80;;;0.60;;
946;SDS011;460;48.734;9.152;2022-07-10T14:46:51;0.83;;;0.40;;
946;SDS011;460;48.734;9.152;2022-07-10T14:49:18;1.40;;;1.33;;
946;SDS011;460;48.734;9.152;2022-07-10T14:51:45;0.63;;;0.63;;
946;SDS011;460;48.734;9.152;2022-07-10T14:54:12;0.83;;;0.83;;
946;SDS011;460;48.734;9.152;2022-07-10T14:56:39;0.40;;;0.40;;
946;SDS011;460;48.734;9.152;2022-07-10T14:59:08;0.60;;;0.37;;
946;SDS011;460;48.734;9.152;2022-07-10T15:01:36;0.47;;;0.40;;
946;SDS011;460;48.734;9.152;2022-07-10T15:04:03;0.40;;;0.40;;
946;SDS011;460;48.734;9.152;2022-07-10T15:06:30;0.50;;;0.50;;
946;SDS011;460;48.734;9.152;2022-07-10T15:08:57;0.60;;;0.50;;
946;SDS011;460;48.734;9.152;2022-07-10T15:11:24;0.50;;;0.50;;
946;SDS011;460;48.734;9.152;2022-07-10T15:13:54;1.13;;;0.50;;
946;SDS011;460;48.734;9.152;2022-07-10T15:16:29;0.50;;;0.50;;
946;SDS011;460;48.734;9.152;2022-07-10T15:18:57;1.43;;;0.40;;
946;SDS011;460;48.734;9.152;2022-07-10T15:21:25;1.00;;;0.60;;
946;SDS011;460;48.734;9.152;2022-07-10T15:23:54;0.50;;;0.43;;
946;SDS011;460;48.734;9.152;2022-07-10T15:26:21;1.57;;;0.70;;
946;SDS011;460;48.734;9.152;2022-07-10T15:28:48;0.53;;;0.53;;
946;SDS011;460;48.734;9.152;2022-07-10T15:31:18;0.77;;;0.70;;
946;SDS011;460;48.734;9.152;2022-07-10T15:33:53;1.17;;;1.13;;
946;SDS011;460;48.734;9.152;2022-07-10T15:36:21;2.03;;;0.80;;
946;SDS011;460;48.734;9.152;2022-07-10T15:38:48;0.80;;;0.70;;
946;SDS011;460;48.734;9.152;2022-07-10T15:41:15;0.80;;;0.80;;
946;SDS011;460;48.734;9.152;2022-07-10T15:43:42;1.80;;;0.90;;
946;SDS011;460;48.734;9.152;2022-07-10T15:46:10;0.50;;;0.50;;
946;SDS011;460;48.734;9.152;2022-07-10T15:48:39;0.87;;;0.60;;
946;SDS011;460;48.734;9.152;2022-07-10T15:51:06;1.10;;;0.70;;
946;SDS011;460;48.734;9.152;2022-07-10T15:53:34;0.60;;;0.50;;
946;SDS011;460;48.734;9.152;2022-07-10T15:56:01;0.97;;;0.50;;
946;SDS011;460;48.734;9.152;2022-07-10T15:58:29;0.50;;;0.50;;
946;SDS011;460;48.734;9.152;2022-07-10T16:00:56;1.00;;;0.60;;
946;SDS011;460;48.734;9.152;2022-07-10T16:03:23;0.40;;;0.40;;
946;SDS011;460;48.734;9.152;2022-07-10T16:05:50;0.40;;;0.40;;